Time;durP1;ratioP1;P1;durP2;ratioP2;P2;SDS_P1;SDS_P2;PMS_P1;PMS_P2;Temp;Humidity;BMP_temperature;BMP_pressure;BME280_temperature;BME280_humidity;BME280_pressure;Samples;Min_cycle;Max_cycle;Signal;HPM_P1;HPM_P2
2023/05/14 00:00:43;;;;;;;118.30;112.10;;;10.70;99.90;;;;;;4980198;28;20050;-73
2023/05/14 00:03:09;;;;;;;115.75;109.93;;;10.70;99.90;;;;;;4983364;28;20129;-73
2023/05/14 00:05:34;;;;;;;107.15;101.03;;;10.60;99.90;;;;;;4987116;28;20504;-74
2023/05/14 00:08:00;;;;;;;107.80;102.03;;;10.60;99.90;;;;;;4986668;28;20073;-73
2023/05/14 00:10:26;;;;;;;101.35;95.78;;;10.60;99.90;;;;;;4987498;28;20524;-73
2023/05/14 00:12:52;;;;;;;98.57;92.85;;;10.50;99.90;;;;;;4988217;28;20054;-73
2023/05/14 00:15:18;;;;;;;91.03;86.13;;;10.50;99.90;;;;;;4984828;28;20565;-73
2023/05/14 00:17:44;;;;;;;79.05;74.10;;;10.50;99.90;;;;;;4984301;28;20035;-73
2023/05/14 00:20:11;;;;;;;88.47;83.30;;;10.50;99.90;;;;;;4972177;28;20047;-72
2023/05/14 00:22:38;;;;;;;91.05;85.90;;;10.50;99.90;;;;;;5000382;28;20045;-73
2023/05/14 00:25:05;;;;;;;91.68;86.40;;;10.50;99.90;;;;;;4984449;28;20470;-73
2023/05/14 00:27:31;;;;;;;97.78;92.28;;;10.40;99.90;;;;;;4967436;28;20038;-73
2023/05/14 00:29:56;;;;;;;92.03;86.78;;;10.40;99.90;;;;;;4982479;28;20100;-73
2023/05/14 00:32:23;;;;;;;85.97;81.03;;;10.40;99.90;;;;;;4986753;28;20050;-72
2023/05/14 00:34:48;;;;;;;86.25;81.03;;;10.30;99.90;;;;;;4987610;28;20049;-73
2023/05/14 00:37:14;;;;;;;82.53;77.35;;;10.30;99.90;;;;;;4990192;28;20050;-73
2023/05/14 00:39:39;;;;;;;85.90;80.85;;;10.30;99.90;;;;;;4984231;28;20963;-73
2023/05/14 00:42:05;;;;;;;84.88;79.72;;;10.20;99.90;;;;;;4987433;28;20674;-73
2023/05/14 00:44:31;;;;;;;87.75;82.30;;;10.20;99.90;;;;;;4987648;28;20577;-73
2023/05/14 00:46:57;;;;;;;84.97;79.85;;;10.20;99.90;;;;;;4968577;28;20042;-73
2023/05/14 00:49:24;;;;;;;91.68;86.25;;;10.20;99.90;;;;;;4984111;28;20042;-72
2023/05/14 00:51:50;;;;;;;92.70;87.38;;;10.20;99.90;;;;;;4986082;28;20112;-72
2023/05/14 00:54:16;;;;;;;88.22;83.13;;;10.20;99.90;;;;;;4987898;28;20072;-73
2023/05/14 00:56:45;;;;;;;89.63;84.30;;;10.10;99.90;;;;;;4985961;28;20796;-72
2023/05/14 00:59:11;;;;;;;92.25;86.45;;;10.10;99.90;;;;;;4986852;28;20049;-73
2023/05/14 01:01:38;;;;;;;89.72;84.63;;;10.10;99.90;;;;;;4972599;28;20058;-73
2023/05/14 01:04:05;;;;;;;88.40;83.03;;;10.10;99.90;;;;;;5003382;28;20518;-72
2023/05/14 01:06:38;;;;;;;89.05;83.90;;;10.10;99.90;;;;;;4971626;28;20461;-72
2023/05/14 01:09:13;;;;;;;87.95;82.55;;;10.10;99.90;;;;;;4979852;28;20053;-73
2023/05/14 01:11:48;;;;;;;89.35;84.00;;;10.00;99.90;;;;;;4985204;28;20054;-72
2023/05/14 01:14:21;;;;;;;91.53;86.68;;;10.00;99.90;;;;;;4987624;28;20398;-72
2023/05/14 01:16:51;;;;;;;89.53;84.35;;;10.00;99.90;;;;;;4979769;28;20481;-73
2023/05/14 01:19:42;;;;;;;88.28;83.38;;;10.00;99.90;;;;;;4986753;28;20078;-72
2023/05/14 01:22:08;;;;;;;85.32;80.85;;;10.00;99.90;;;;;;4986097;28;20403;-72
2023/05/14 01:24:34;;;;;;;87.82;82.63;;;10.00;99.90;;;;;;4987318;28;20061;-73
2023/05/14 01:27:15;;;;;;;86.03;81.03;;;9.90;99.90;;;;;;4985811;28;20084;-73
2023/05/14 01:29:48;;;;;;;84.32;79.47;;;9.90;99.90;;;;;;4968077;28;20076;-73
2023/05/14 01:32:16;;;;;;;82.60;77.65;;;9.90;99.90;;;;;;4982261;28;20098;-73
2023/05/14 01:34:44;;;;;;;81.70;76.82;;;9.90;99.90;;;;;;4985700;28;20517;-73
2023/05/14 01:37:11;;;;;;;89.80;84.47;;;9.90;99.90;;;;;;4988131;28;20081;-73
2023/05/14 01:39:38;;;;;;;73.90;69.47;;;9.90;99.90;;;;;;4977187;28;20453;-74
2023/05/14 01:42:06;;;;;;;82.28;77.45;;;9.90;99.90;;;;;;4985915;28;20042;-73
2023/05/14 01:44:32;;;;;;;82.88;78.45;;;9.90;99.90;;;;;;4985969;28;20410;-73
2023/05/14 01:46:58;;;;;;;88.43;83.45;;;9.90;99.90;;;;;;4986330;28;20047;-73
2023/05/14 01:49:23;;;;;;;89.03;83.68;;;9.90;99.90;;;;;;4966730;28;20050;-73
2023/05/14 01:51:49;;;;;;;107.85;102.10;;;9.90;99.90;;;;;;4986588;28;20045;-74
2023/05/14 01:54:15;;;;;;;108.15;102.35;;;9.90;99.90;;;;;;4983524;28;20491;-73
2023/05/14 01:56:40;;;;;;;106.13;100.25;;;10.00;99.90;;;;;;4973078;28;20050;-74
2023/05/14 01:59:06;;;;;;;114.80;108.82;;;10.00;99.90;;;;;;4984701;28;20096;-73
2023/05/14 02:01:32;;;;;;;119.28;112.78;;;10.00;99.90;;;;;;4983635;28;20167;-73
2023/05/14 02:03:58;;;;;;;121.35;114.75;;;10.00;99.90;;;;;;4980885;28;20053;-73
2023/05/14 02:06:24;;;;;;;120.25;113.65;;;10.00;99.90;;;;;;4981313;28;20042;-73
2023/05/14 02:08:49;;;;;;;120.60;114.10;;;10.00;99.90;;;;;;4985334;28;20038;-73
2023/05/14 02:11:15;;;;;;;118.57;112.00;;;10.00;99.90;;;;;;4969479;28;20049;-73
2023/05/14 02:13:41;;;;;;;100.47;94.65;;;10.00;99.90;;;;;;4978804;28;20047;-73
2023/05/14 02:16:06;;;;;;;104.38;98.95;;;10.00;99.90;;;;;;4983756;28;20053;-73
2023/05/14 02:18:32;;;;;;;109.15;102.50;;;10.00;99.90;;;;;;4986508;28;20507;-73
2023/05/14 02:20:57;;;;;;;94.93;89.18;;;10.00;99.90;;;;;;4989880;28;20120;-73
2023/05/14 02:23:23;;;;;;;102.18;96.38;;;9.90;99.90;;;;;;4968233;28;20498;-73
2023/05/14 02:25:49;;;;;;;90.50;85.00;;;9.90;99.90;;;;;;4985783;28;20693;-73
2023/05/14 02:28:14;;;;;;;87.22;82.10;;;9.90;99.90;;;;;;4986310;28;20049;-73
2023/05/14 02:30:40;;;;;;;88.47;83.10;;;9.90;99.90;;;;;;4985217;28;20046;-73
2023/05/14 02:33:06;;;;;;;87.70;82.50;;;9.90;99.90;;;;;;4986821;28;20030;-73
2023/05/14 02:35:31;;;;;;;86.38;81.18;;;9.80;99.90;;;;;;4969840;28;20034;-73
2023/05/14 02:37:58;;;;;;;86.05;80.40;;;9.80;99.90;;;;;;4987643;28;20483;-73
2023/05/14 02:40:24;;;;;;;82.18;76.82;;;9.80;99.90;;;;;;4984853;28;20092;-73
2023/05/14 02:42:49;;;;;;;84.22;79.20;;;9.80;99.90;;;;;;4986726;28;20128;-73
2023/05/14 02:45:15;;;;;;;88.47;82.72;;;9.70;99.90;;;;;;4986012;28;20476;-73
2023/05/14 02:47:42;;;;;;;90.78;85.07;;;9.70;99.90;;;;;;4977764;28;20042;-72
2023/05/14 02:50:08;;;;;;;83.53;78.00;;;9.70;99.90;;;;;;4986165;28;20130;-73
2023/05/14 02:52:34;;;;;;;82.97;77.78;;;9.70;99.90;;;;;;4985470;28;20081;-73
2023/05/14 02:55:00;;;;;;;80.47;75.35;;;9.70;99.90;;;;;;4985568;28;20501;-72
2023/05/14 02:57:26;;;;;;;87.18;82.03;;;9.70;99.90;;;;;;4985396;28;20042;-72
2023/05/14 02:59:51;;;;;;;83.82;78.78;;;9.60;99.90;;;;;;4968917;28;20501;-73
2023/05/14 03:02:17;;;;;;;83.95;79.03;;;9.60;99.90;;;;;;4987240;28;20056;-72
2023/05/14 03:04:43;;;;;;;96.43;90.68;;;9.50;99.90;;;;;;4989244;28;20077;-72
2023/05/14 03:07:08;;;;;;;81.60;76.25;;;9.50;99.90;;;;;;4985891;28;20046;-73
2023/05/14 03:09:34;;;;;;;81.47;76.18;;;9.50;99.90;;;;;;4988944;28;20038;-73
2023/05/14 03:11:59;;;;;;;81.53;76.50;;;9.50;99.90;;;;;;4989001;28;20589;-72
2023/05/14 03:14:25;;;;;;;86.05;80.55;;;9.40;99.90;;;;;;4987922;28;20129;-73
2023/05/14 03:16:51;;;;;;;79.97;74.63;;;9.40;99.90;;;;;;4987028;28;20402;-72
2023/05/14 03:19:16;;;;;;;82.10;76.75;;;9.40;99.90;;;;;;4988067;28;20081;-73
2023/05/14 03:21:42;;;;;;;98.40;92.20;;;9.40;99.90;;;;;;4991356;28;20117;-72
2023/05/14 03:24:08;;;;;;;88.30;82.57;;;9.40;99.90;;;;;;4988286;28;20069;-72
2023/05/14 03:26:33;;;;;;;98.28;92.22;;;9.40;99.90;;;;;;4988211;28;20042;-72
2023/05/14 03:28:59;;;;;;;111.18;103.95;;;9.40;99.90;;;;;;4984675;28;20494;-73
2023/05/14 03:31:25;;;;;;;105.05;97.93;;;9.40;99.90;;;;;;4983845;28;20073;-73
2023/05/14 03:33:51;;;;;;;99.38;93.03;;;9.40;99.90;;;;;;4971872;28;20414;-73
2023/05/14 03:36:16;;;;;;;106.45;99.90;;;9.40;99.90;;;;;;4987385;28;20053;-73
2023/05/14 03:38:42;;;;;;;121.38;113.78;;;9.40;99.90;;;;;;4990252;28;20053;-73
2023/05/14 03:41:08;;;;;;;121.65;114.07;;;9.40;99.90;;;;;;4987869;28;20042;-73
2023/05/14 03:43:33;;;;;;;115.30;107.82;;;9.50;99.90;;;;;;4976921;28;20073;-73
2023/05/14 03:45:59;;;;;;;115.85;108.50;;;9.50;99.90;;;;;;4989281;28;20581;-73
2023/05/14 03:48:25;;;;;;;118.20;110.68;;;9.60;99.90;;;;;;4986183;28;20081;-74
2023/05/14 03:50:51;;;;;;;112.97;105.32;;;9.60;99.90;;;;;;4981560;28;20573;-73
2023/05/14 03:53:16;;;;;;;115.05;107.75;;;9.60;99.90;;;;;;4988844;28;20045;-73
2023/05/14 03:55:42;;;;;;;116.15;108.93;;;9.60;99.90;;;;;;4987835;28;20057;-73
2023/05/14 03:58:12;;;;;;;115.68;107.97;;;9.60;99.90;;;;;;4989032;28;20108;-73
2023/05/14 04:00:41;;;;;;;117.80;109.43;;;9.70;99.90;;;;;;4983040;28;20049;-72
2023/05/14 04:03:07;;;;;;;118.15;110.85;;;9.70;99.90;;;;;;4988614;28;20039;-73
2023/05/14 04:05:33;;;;;;;118.78;110.13;;;9.70;99.90;;;;;;4987859;28;20541;-73
2023/05/14 04:07:59;;;;;;;115.43;107.90;;;9.70;99.90;;;;;;4988152;28;20050;-73
2023/05/14 04:10:25;;;;;;;113.45;106.25;;;9.80;99.90;;;;;;4988056;28;20054;-73
2023/05/14 04:12:50;;;;;;;124.15;116.30;;;9.80;99.90;;;;;;5003999;28;20088;-73
2023/05/14 04:15:16;;;;;;;120.90;112.68;;;9.80;99.90;;;;;;4987555;28;20161;-73
2023/05/14 04:17:42;;;;;;;117.00;109.45;;;9.90;99.90;;;;;;4987981;28;20112;-73
2023/05/14 04:20:08;;;;;;;114.68;107.55;;;9.90;99.90;;;;;;4988104;28;20045;-73
2023/05/14 04:22:34;;;;;;;123.88;116.68;;;10.00;99.90;;;;;;4988360;28;20038;-73
2023/05/14 04:24:59;;;;;;;126.75;119.18;;;10.10;99.90;;;;;;4988131;28;20042;-73
2023/05/14 04:27:27;;;;;;;124.18;116.75;;;10.10;99.90;;;;;;4967240;28;20105;-73
2023/05/14 04:29:52;;;;;;;122.03;115.13;;;10.10;99.90;;;;;;4986274;28;20158;-73
2023/05/14 04:32:19;;;;;;;118.32;111.43;;;10.20;99.90;;;;;;4979843;28;20050;-73
2023/05/14 04:34:46;;;;;;;122.72;114.95;;;10.20;99.90;;;;;;4972018;28;20132;-73
2023/05/14 04:37:11;;;;;;;119.47;112.35;;;10.20;99.90;;;;;;4986787;28;20050;-73
2023/05/14 04:39:37;;;;;;;114.00;107.40;;;10.30;99.90;;;;;;4987591;28;20049;-73
2023/05/14 04:42:03;;;;;;;125.57;118.15;;;10.30;99.90;;;;;;4983692;28;20372;-73
2023/05/14 04:44:29;;;;;;;114.85;108.00;;;10.40;99.90;;;;;;4986086;28;20082;-73
2023/05/14 04:46:55;;;;;;;112.15;105.85;;;10.40;99.90;;;;;;4986676;28;20046;-73
2023/05/14 04:49:20;;;;;;;99.90;93.93;;;10.50;99.90;;;;;;4971859;28;20050;-73
2023/05/14 04:51:47;;;;;;;98.13;92.07;;;10.50;99.90;;;;;;4984002;28;20050;-73
2023/05/14 04:54:12;;;;;;;104.53;98.20;;;10.70;99.90;;;;;;4987907;28;20168;-73
2023/05/14 04:56:38;;;;;;;93.28;87.47;;;10.80;99.90;;;;;;4986588;28;20491;-73
2023/05/14 04:59:04;;;;;;;99.40;92.45;;;10.90;99.90;;;;;;4985673;28;20039;-73
2023/05/14 05:01:29;;;;;;;96.10;89.90;;;11.10;99.90;;;;;;4987360;28;20133;-73
2023/05/14 05:03:56;;;;;;;85.70;79.65;;;11.30;99.90;;;;;;4985323;28;20050;-73
2023/05/14 05:06:22;;;;;;;84.13;78.13;;;11.50;99.90;;;;;;4987668;28;20467;-73
2023/05/14 05:08:47;;;;;;;104.25;97.45;;;11.50;99.90;;;;;;4987223;28;20100;-73
2023/05/14 05:11:13;;;;;;;115.82;108.90;;;11.60;99.90;;;;;;4984710;28;20405;-73
2023/05/14 05:13:39;;;;;;;125.22;118.05;;;11.60;99.90;;;;;;4987285;28;20151;-73
2023/05/14 05:16:05;;;;;;;121.35;114.47;;;11.70;99.90;;;;;;4986822;28;20092;-73
2023/05/14 05:18:31;;;;;;;110.72;104.45;;;11.80;99.90;;;;;;4986518;28;20506;-73
2023/05/14 05:20:56;;;;;;;98.30;92.32;;;11.90;99.90;;;;;;4972449;28;20038;-73
2023/05/14 05:23:22;;;;;;;83.63;78.40;;;12.00;99.90;;;;;;4985596;28;20554;-73
2023/05/14 05:25:48;;;;;;;78.55;73.55;;;12.00;99.90;;;;;;4985902;28;20045;-73
2023/05/14 05:28:14;;;;;;;78.07;73.00;;;12.00;99.90;;;;;;4986560;28;22044;-73
2023/05/14 05:30:40;;;;;;;74.15;69.45;;;12.10;99.90;;;;;;4986765;28;20038;-73
2023/05/14 05:33:06;;;;;;;77.93;72.90;;;12.20;99.90;;;;;;4987075;28;20514;-73
2023/05/14 05:35:32;;;;;;;79.05;73.43;;;12.20;99.90;;;;;;4985404;28;20043;-73
2023/05/14 05:37:57;;;;;;;77.30;72.15;;;12.20;99.90;;;;;;4986547;28;20046;-73
2023/05/14 05:40:23;;;;;;;78.18;73.00;;;12.20;99.90;;;;;;4981237;28;20042;-73
2023/05/14 05:42:49;;;;;;;78.07;72.82;;;12.20;99.90;;;;;;4982639;28;20089;-73
2023/05/14 05:45:14;;;;;;;88.75;83.40;;;12.20;99.90;;;;;;4985108;28;20069;-74
2023/05/14 05:47:40;;;;;;;80.22;75.30;;;12.20;99.90;;;;;;4970504;28;20050;-73
2023/05/14 05:50:06;;;;;;;79.55;74.07;;;12.20;99.90;;;;;;4985961;28;20039;-73
2023/05/14 05:52:32;;;;;;;83.65;78.25;;;12.30;99.90;;;;;;4985598;28;20042;-73
2023/05/14 05:54:57;;;;;;;83.70;78.13;;;12.40;99.90;;;;;;4986084;28;20148;-73
2023/05/14 05:57:25;;;;;;;84.03;79.00;;;12.50;99.90;;;;;;4986635;28;20050;-73
2023/05/14 05:59:51;;;;;;;72.50;67.75;;;12.60;99.90;;;;;;4985792;28;20093;-73
2023/05/14 06:02:18;;;;;;;64.65;60.55;;;12.80;99.90;;;;;;4969924;28;20422;-73
2023/05/14 06:04:44;;;;;;;55.55;51.55;;;13.00;99.90;;;;;;4986408;28;20513;-73
2023/05/14 06:07:09;;;;;;;52.65;49.03;;;13.40;99.90;;;;;;4985389;28;20129;-74
2023/05/14 06:09:35;;;;;;;53.28;49.70;;;13.50;99.90;;;;;;4985495;28;20117;-73
2023/05/14 06:12:00;;;;;;;50.33;46.53;;;13.60;99.90;;;;;;4986523;28;20442;-74
2023/05/14 06:14:26;;;;;;;54.50;50.80;;;13.90;99.90;;;;;;4984843;28;20565;-73
2023/05/14 06:16:52;;;;;;;43.20;40.22;;;14.30;99.90;;;;;;4985004;28;20054;-73
2023/05/14 06:19:17;;;;;;;45.97;42.28;;;14.50;99.90;;;;;;4985742;28;20069;-73
2023/05/14 06:21:43;;;;;;;47.40;44.28;;;14.70;99.90;;;;;;4992452;28;20030;-74
2023/05/14 06:24:09;;;;;;;43.92;40.75;;;14.80;99.90;;;;;;4985278;28;20050;-74
2023/05/14 06:26:34;;;;;;;43.35;40.40;;;15.10;99.90;;;;;;4985419;28;20366;-73
2023/05/14 06:29:00;;;;;;;38.75;36.05;;;15.20;99.90;;;;;;4986163;28;20046;-73
2023/05/14 06:31:26;;;;;;;39.03;36.00;;;15.30;99.90;;;;;;4984961;28;20503;-73
2023/05/14 06:33:51;;;;;;;39.72;36.70;;;15.30;99.90;;;;;;4985360;28;20053;-73
2023/05/14 06:36:17;;;;;;;37.25;34.22;;;15.20;99.90;;;;;;4986791;28;20042;-73
2023/05/14 06:38:43;;;;;;;37.72;34.53;;;15.20;99.90;;;;;;4991795;28;20453;-74
2023/05/14 06:41:08;;;;;;;38.13;35.42;;;15.10;99.90;;;;;;4973312;28;20042;-73
2023/05/14 06:43:34;;;;;;;46.13;43.17;;;15.10;99.90;;;;;;4973494;28;20117;-73
2023/05/14 06:46:00;;;;;;;43.63;40.38;;;15.10;99.90;;;;;;4988963;28;20105;-73
2023/05/14 06:48:28;;;;;;;45.88;42.38;;;15.00;99.90;;;;;;4987210;28;20125;-74
2023/05/14 06:50:53;;;;;;;44.13;40.95;;;14.90;99.90;;;;;;4988319;28;20151;-74
2023/05/14 06:53:19;;;;;;;48.97;45.83;;;14.90;99.90;;;;;;4973358;28;20465;-74
2023/05/14 06:55:47;;;;;;;43.50;40.65;;;14.80;99.90;;;;;;4988875;28;20121;-74
2023/05/14 06:58:13;;;;;;;44.05;40.78;;;14.80;99.90;;;;;;4986115;28;20041;-73
2023/05/14 07:00:39;;;;;;;43.13;39.92;;;14.80;99.90;;;;;;4997154;28;20034;-74
2023/05/14 07:03:04;;;;;;;41.85;38.88;;;14.80;99.90;;;;;;4989392;28;20540;-74
2023/05/14 07:05:30;;;;;;;42.97;39.70;;;14.80;99.90;;;;;;4990184;28;20065;-74
2023/05/14 07:07:56;;;;;;;48.08;44.50;;;14.80;99.90;;;;;;4988709;28;20070;-74
2023/05/14 07:10:22;;;;;;;48.17;45.00;;;14.90;99.90;;;;;;4986197;28;20458;-73
2023/05/14 07:12:48;;;;;;;44.38;41.38;;;14.90;99.90;;;;;;4989471;28;20031;-73
2023/05/14 07:15:14;;;;;;;46.42;43.33;;;14.90;99.90;;;;;;4988412;28;20065;-74
2023/05/14 07:17:40;;;;;;;47.28;43.67;;;15.00;99.90;;;;;;4988308;28;20506;-74
2023/05/14 07:20:06;;;;;;;47.90;44.88;;;15.20;99.90;;;;;;4988480;28;20041;-74
2023/05/14 07:22:32;;;;;;;47.75;44.50;;;15.50;99.90;;;;;;4991332;28;20038;-74
2023/05/14 07:24:58;;;;;;;45.88;42.88;;;15.70;99.90;;;;;;4989166;28;20030;-74
2023/05/14 07:27:23;;;;;;;49.45;46.33;;;15.90;99.90;;;;;;4989012;28;20064;-74
2023/05/14 07:29:49;;;;;;;52.00;48.95;;;16.10;99.90;;;;;;4987344;28;20042;-74
2023/05/14 07:32:15;;;;;;;50.38;47.38;;;16.30;99.90;;;;;;4988202;28;20049;-74
2023/05/14 07:34:41;;;;;;;49.45;46.35;;;16.40;99.90;;;;;;4988565;28;20073;-74
2023/05/14 07:37:06;;;;;;;52.00;48.72;;;16.70;99.90;;;;;;4990018;28;20125;-74
2023/05/14 07:39:32;;;;;;;51.63;48.30;;;16.80;99.90;;;;;;4971748;28;20043;-74
2023/05/14 07:41:59;;;;;;;55.63;51.97;;;16.90;99.90;;;;;;4983515;28;20050;-74
2023/05/14 07:44:25;;;;;;;54.17;50.90;;;16.90;99.90;;;;;;4971012;28;20088;-74
2023/05/14 07:46:51;;;;;;;46.38;42.90;;;17.00;99.90;;;;;;4986612;28;20484;-74
2023/05/14 07:49:17;;;;;;;32.42;29.85;;;17.10;99.90;;;;;;4974578;28;20081;-74
2023/05/14 07:51:42;;;;;;;40.10;37.30;;;17.10;99.90;;;;;;4982082;28;20108;-74
2023/05/14 07:54:08;;;;;;;40.53;37.42;;;17.10;99.90;;;;;;4988297;28;20417;-74
2023/05/14 07:56:33;;;;;;;44.67;41.75;;;17.10;99.90;;;;;;4988107;28;20057;-74
2023/05/14 07:58:59;;;;;;;51.85;48.75;;;17.10;99.90;;;;;;4972650;28;20034;-74
2023/05/14 08:01:25;;;;;;;31.10;28.27;;;17.30;99.90;;;;;;4987406;28;20055;-74
2023/05/14 08:03:50;;;;;;;30.58;28.15;;;17.40;99.90;;;;;;4985130;28;20101;-74
2023/05/14 08:06:16;;;;;;;28.65;26.58;;;17.40;99.90;;;;;;4985277;28;20414;-74
2023/05/14 08:08:42;;;;;;;29.30;26.98;;;17.40;99.90;;;;;;4988233;28;20046;-74
2023/05/14 08:11:07;;;;;;;29.98;27.58;;;17.50;99.90;;;;;;4988286;28;20129;-74
2023/05/14 08:13:33;;;;;;;27.67;25.42;;;17.50;99.90;;;;;;4985166;28;20449;-74
2023/05/14 08:15:59;;;;;;;28.58;26.23;;;17.60;99.90;;;;;;4985989;28;20125;-74
2023/05/14 08:18:24;;;;;;;27.88;25.65;;;17.70;99.90;;;;;;4988185;28;20398;-74
2023/05/14 08:20:50;;;;;;;27.98;25.45;;;17.60;99.90;;;;;;4970143;28;20116;-74
2023/05/14 08:23:16;;;;;;;30.08;27.55;;;17.60;99.90;;;;;;4980789;28;20038;-74
2023/05/14 08:25:42;;;;;;;32.47;29.70;;;17.70;99.90;;;;;;4999327;28;20049;-74
2023/05/14 08:28:07;;;;;;;29.60;27.35;;;17.70;99.90;;;;;;5004465;28;20068;-74
2023/05/14 08:30:33;;;;;;;29.30;26.95;;;17.90;99.90;;;;;;4987649;28;20053;-74
2023/05/14 08:32:58;;;;;;;32.40;30.00;;;18.00;99.90;;;;;;4985539;28;20039;-72
2023/05/14 08:35:24;;;;;;;31.15;28.65;;;18.30;99.90;;;;;;4981601;28;20042;-72
2023/05/14 08:37:51;;;;;;;29.63;27.38;;;18.20;99.90;;;;;;4973216;28;20046;-72
2023/05/14 08:40:17;;;;;;;34.08;31.25;;;18.30;99.90;;;;;;4988026;28;20068;-72
2023/05/14 08:42:43;;;;;;;29.75;27.20;;;18.40;99.90;;;;;;4987269;28;20533;-74
2023/05/14 08:45:09;;;;;;;28.60;25.70;;;18.10;99.90;;;;;;4985227;28;20145;-74
2023/05/14 08:47:36;;;;;;;33.10;30.75;;;18.20;99.90;;;;;;4986176;28;20121;-74
2023/05/14 08:50:03;;;;;;;32.50;30.17;;;18.10;99.90;;;;;;4969228;28;20047;-74
2023/05/14 08:52:30;;;;;;;33.72;31.27;;;18.30;99.90;;;;;;4988143;28;20125;-72
2023/05/14 08:54:59;;;;;;;34.15;31.48;;;18.70;99.90;;;;;;4984500;28;20042;-72
2023/05/14 08:57:25;;;;;;;33.75;30.80;;;19.00;99.90;;;;;;4986827;28;20042;-74
2023/05/14 08:59:52;;;;;;;31.63;29.10;;;19.20;99.90;;;;;;4983713;28;20125;-74
2023/05/14 09:02:21;;;;;;;29.33;26.92;;;19.30;99.90;;;;;;4986812;28;20185;-72
2023/05/14 09:04:48;;;;;;;34.15;31.48;;;19.60;99.90;;;;;;4984800;28;20125;-73
2023/05/14 09:07:14;;;;;;;31.58;28.98;;;19.80;99.90;;;;;;4984705;28;20100;-72
2023/05/14 09:09:40;;;;;;;26.98;25.02;;;20.10;99.90;;;;;;4984243;28;20038;-73
2023/05/14 09:12:06;;;;;;;24.35;21.95;;;20.30;99.90;;;;;;4987026;28;20046;-73
2023/05/14 09:14:32;;;;;;;37.15;34.47;;;19.90;99.90;;;;;;4987570;28;20101;-72
2023/05/14 09:16:58;;;;;;;31.45;29.17;;;19.50;99.90;;;;;;4971267;28;20078;-72
2023/05/14 09:19:24;;;;;;;25.02;23.08;;;19.30;99.90;;;;;;4984314;28;20049;-72
2023/05/14 09:21:50;;;;;;;32.30;29.98;;;19.30;99.90;;;;;;4983282;28;20042;-73
2023/05/14 09:24:23;;;;;;;34.53;31.65;;;19.40;99.90;;;;;;4986820;28;20046;-72
2023/05/14 09:26:55;;;;;;;27.20;25.02;;;19.50;99.90;;;;;;4998521;28;20054;-72
2023/05/14 09:29:22;;;;;;;43.63;40.75;;;19.80;99.90;;;;;;4968868;28;20038;-72
2023/05/14 09:31:50;;;;;;;35.08;32.80;;;19.80;99.90;;;;;;4987066;28;20581;-73
2023/05/14 09:34:28;;;;;;;50.35;47.25;;;19.80;99.90;;;;;;4986193;28;20054;-73
2023/05/14 09:36:56;;;;;;;28.35;26.08;;;19.80;99.90;;;;;;4967371;28;20046;-72
2023/05/14 09:39:23;;;;;;;31.48;29.30;;;20.00;99.90;;;;;;4983060;28;20093;-73
2023/05/14 09:41:50;;;;;;;24.40;22.40;;;20.20;99.90;;;;;;4987117;28;20451;-72
2023/05/14 09:44:16;;;;;;;37.08;34.50;;;20.40;99.90;;;;;;4985440;28;20125;-73
2023/05/14 09:46:42;;;;;;;43.97;41.08;;;20.60;99.90;;;;;;4982676;28;20050;-73
2023/05/14 09:49:08;;;;;;;35.35;32.80;;;20.50;99.90;;;;;;4984165;28;20108;-73
2023/05/14 09:51:36;;;;;;;34.97;32.55;;;20.40;99.90;;;;;;4970855;28;20046;-73
2023/05/14 09:54:03;;;;;;;31.52;29.17;;;20.40;99.90;;;;;;4986561;28;20081;-73
2023/05/14 09:56:29;;;;;;;39.20;36.65;;;20.50;99.90;;;;;;4986537;28;20088;-72
2023/05/14 09:58:55;;;;;;;34.35;31.98;;;20.60;99.90;;;;;;4986530;28;20074;-72
2023/05/14 10:01:21;;;;;;;30.20;27.95;;;20.90;99.90;;;;;;4985543;28;20438;-73
2023/05/14 10:03:48;;;;;;;27.08;24.88;;;21.10;99.90;;;;;;4978727;28;20089;-73
2023/05/14 10:06:16;;;;;;;29.25;27.08;;;21.20;99.90;;;;;;4985012;28;20054;-73
2023/05/14 10:08:43;;;;;;;27.13;24.92;;;21.30;99.90;;;;;;4982134;28;20050;-73
2023/05/14 10:11:21;;;;;;;26.80;24.45;;;21.30;99.90;;;;;;4981978;28;20084;-73
2023/05/14 10:14:06;;;;;;;25.70;23.67;;;21.30;99.90;;;;;;4986466;28;20129;-72
2023/05/14 10:16:36;;;;;;;26.42;24.33;;;21.30;99.90;;;;;;4988158;28;20042;-73
2023/05/14 10:19:09;;;;;;;28.45;26.38;;;21.10;99.90;;;;;;4987683;28;20096;-72
2023/05/14 10:21:36;;;;;;;26.40;24.10;;;21.00;99.90;;;;;;4988267;28;20034;-73
2023/05/14 10:24:03;;;;;;;28.25;25.75;;;20.80;99.90;;;;;;4989608;28;20172;-72
2023/05/14 10:26:31;;;;;;;24.27;22.52;;;20.80;99.90;;;;;;4971368;28;20084;-72
2023/05/14 10:28:58;;;;;;;28.27;26.17;;;20.80;99.90;;;;;;4973222;28;20184;-73
2023/05/14 10:31:45;;;;;;;22.48;20.45;;;20.90;99.90;;;;;;4988864;28;20046;-73
2023/05/14 10:34:43;;;;;;;21.98;19.90;;;20.90;99.90;;;;;;4989125;28;20422;-73
2023/05/14 10:37:11;;;;;;;24.50;22.23;;;20.90;99.90;;;;;;4990907;28;20062;-73
2023/05/14 10:39:42;;;;;;;24.25;22.30;;;21.10;99.90;;;;;;4962916;28;20058;-72
2023/05/14 10:42:11;;;;;;;22.38;20.58;;;21.30;99.90;;;;;;4990356;28;20038;-72
2023/05/14 10:44:53;;;;;;;140.95;134.27;;;21.60;99.90;;;;;;4989821;28;20437;-73
2023/05/14 10:47:19;;;;;;;187.18;178.45;;;22.00;99.90;;;;;;4991423;28;20046;-73
2023/05/14 10:49:49;;;;;;;149.15;141.85;;;22.20;99.90;;;;;;4983962;28;21003;-73
2023/05/14 10:52:18;;;;;;;234.55;223.85;;;22.30;99.90;;;;;;4990033;28;20425;-73
2023/05/14 10:54:56;;;;;;;265.70;253.43;;;22.30;99.90;;;;;;4989420;28;20135;-73
2023/05/14 10:57:23;;;;;;;191.15;182.05;;;22.20;99.90;;;;;;4990563;28;20045;-73
2023/05/14 10:59:55;;;;;;;210.38;200.50;;;22.20;99.90;;;;;;4975083;28;20053;-73
2023/05/14 11:02:31;;;;;;;225.77;215.25;;;22.10;99.90;;;;;;4991139;28;20058;-73
2023/05/14 11:05:07;;;;;;;382.80;363.95;;;21.80;99.90;;;;;;4990047;28;20048;-72
2023/05/14 11:07:39;;;;;;;258.85;247.13;;;21.40;99.90;;;;;;4990472;28;20164;-74
2023/05/14 11:10:11;;;;;;;242.68;230.57;;;21.40;99.90;;;;;;4987698;28;20184;-73
2023/05/14 11:12:39;;;;;;;274.38;261.63;;;21.40;99.90;;;;;;4986507;28;20454;-73
2023/05/14 11:15:08;;;;;;;230.07;219.35;;;21.50;99.90;;;;;;4988960;28;20498;-73
2023/05/14 11:17:35;;;;;;;313.45;298.58;;;21.70;99.90;;;;;;4987018;28;20137;-73
2023/05/14 11:20:01;;;;;;;212.85;202.40;;;21.90;99.90;;;;;;4976830;28;20042;-73
2023/05/14 11:22:27;;;;;;;300.42;286.75;;;22.00;99.90;;;;;;4988480;28;20414;-73
2023/05/14 11:24:53;;;;;;;329.42;314.10;;;22.20;99.90;;;;;;4979439;28;20042;-74
2023/05/14 11:27:20;;;;;;;358.00;340.80;;;22.30;99.90;;;;;;4981370;28;20046;-73
2023/05/14 11:29:47;;;;;;;315.10;299.70;;;22.40;99.90;;;;;;4981950;28;20038;-73
2023/05/14 11:32:14;;;;;;;330.48;314.77;;;22.60;99.90;;;;;;4981538;28;20439;-74
2023/05/14 11:34:40;;;;;;;205.02;195.38;;;22.80;99.90;;;;;;4968162;28;20109;-74
2023/05/14 11:37:08;;;;;;;122.97;117.13;;;22.90;99.90;;;;;;4976748;28;20046;-74
2023/05/14 11:39:37;;;;;;;189.27;180.45;;;22.70;99.90;;;;;;4985429;28;20042;-73
2023/05/14 11:42:13;;;;;;;207.13;197.50;;;22.80;99.90;;;;;;4987763;28;20038;-74
2023/05/14 11:44:40;;;;;;;137.50;130.73;;;23.20;99.90;;;;;;4995919;28;20049;-73
2023/05/14 11:47:06;;;;;;;70.65;67.00;;;23.30;99.90;;;;;;4984135;28;20477;-74
2023/05/14 11:49:34;;;;;;;53.45;50.40;;;23.30;99.90;;;;;;4981869;28;20046;-74
2023/05/14 11:52:01;;;;;;;129.38;123.22;;;23.30;99.90;;;;;;4985354;28;20065;-74
2023/05/14 11:54:28;;;;;;;71.80;68.00;;;23.40;99.90;;;;;;4975939;28;20055;-74
2023/05/14 11:56:58;;;;;;;56.30;53.20;;;23.60;99.90;;;;;;4985951;28;20049;-74
2023/05/14 11:59:28;;;;;;;91.78;87.18;;;23.90;99.90;;;;;;4978515;28;20047;-74
2023/05/14 12:01:54;;;;;;;32.00;29.90;;;24.20;99.00;;;;;;4986584;28;20054;-73
2023/05/14 12:04:21;;;;;;;25.73;24.10;;;24.20;98.90;;;;;;4966086;28;20039;-74
2023/05/14 12:06:58;;;;;;;38.92;36.67;;;24.40;97.10;;;;;;4987555;28;20533;-73
2023/05/14 12:09:24;;;;;;;36.75;34.70;;;24.40;97.00;;;;;;4987410;28;20050;-73
2023/05/14 12:11:50;;;;;;;63.22;60.13;;;24.50;97.70;;;;;;4986864;28;20046;-74
2023/05/14 12:14:18;;;;;;;74.10;70.50;;;24.50;97.90;;;;;;4987929;28;20185;-74
2023/05/14 12:16:45;;;;;;;41.17;38.72;;;24.50;97.60;;;;;;4988297;28;20054;-74
2023/05/14 12:19:13;;;;;;;46.85;44.22;;;24.40;97.30;;;;;;4985994;28;20042;-74
2023/05/14 12:21:39;;;;;;;74.65;70.88;;;24.00;97.00;;;;;;4990556;28;20050;-74